Time;durP1;ratioP1;P1;durP2;ratioP2;P2;SDS_P1;SDS_P2;PMS_P1;PMS_P2;Temp;Humidity;BMP_temperature;BMP_pressure;BME280_temperature;BME280_humidity;BME280_pressure;Samples;Min_cycle;Max_cycle;Signal;HPM_P1;HPM_P2
2022/06/16 00:00:31;;;;;;;2.92;1.85;;;;;;;;;;5074392;28;20225;-16
2022/06/16 00:02:58;;;;;;;2.72;1.75;;;;;;;;;;5074736;28;20230;-16
2022/06/16 00:05:26;;;;;;;2.75;1.80;;;;;;;;;;5073884;28;20230;-16
2022/06/16 00:07:54;;;;;;;2.67;1.80;;;;;;;;;;5060603;28;20704;-16
2022/06/16 00:10:21;;;;;;;2.67;1.77;;;;;;;;;;5073837;28;20956;-16
2022/06/16 00:12:49;;;;;;;4.82;2.08;;;;;;;;;;5073512;28;20244;-16
2022/06/16 00:15:20;;;;;;;2.55;1.65;;;;;;;;;;5074469;28;20357;-16
2022/06/16 00:17:47;;;;;;;5.07;1.80;;;;;;;;;;5067798;28;20238;-16
2022/06/16 00:20:14;;;;;;;2.05;1.83;;;;;;;;;;5076697;28;20225;-16
2022/06/16 00:22:42;;;;;;;3.45;1.73;;;;;;;;;;5073858;28;20230;-16
2022/06/16 00:25:09;;;;;;;2.35;1.90;;;;;;;;;;5073578;28;20240;-16
2022/06/16 00:27:37;;;;;;;2.65;1.75;;;;;;;;;;5073692;28;20287;-16
2022/06/16 00:30:05;;;;;;;3.60;1.95;;;;;;;;;;5072935;28;20247;-16
2022/06/16 00:32:34;;;;;;;4.03;1.90;;;;;;;;;;5074311;28;20244;-16
2022/06/16 00:35:01;;;;;;;4.45;1.90;;;;;;;;;;5073951;28;20225;-16
2022/06/16 00:37:29;;;;;;;3.63;1.92;;;;;;;;;;5073571;28;20221;-16
2022/06/16 00:39:56;;;;;;;6.22;2.00;;;;;;;;;;5073861;28;20229;-16
2022/06/16 00:42:24;;;;;;;2.92;1.83;;;;;;;;;;5073173;28;20221;-16
2022/06/16 00:44:51;;;;;;;3.15;1.98;;;;;;;;;;5073608;28;21135;-16
2022/06/16 00:47:19;;;;;;;2.22;1.50;;;;;;;;;;5073832;28;20726;-16
2022/06/16 00:49:48;;;;;;;3.08;2.13;;;;;;;;;;5073789;28;20230;-16
2022/06/16 00:52:17;;;;;;;2.40;1.83;;;;;;;;;;5072764;28;20332;-16
2022/06/16 00:54:45;;;;;;;4.40;2.10;;;;;;;;;;5073784;28;20240;-16
2022/06/16 00:57:13;;;;;;;3.15;1.80;;;;;;;;;;5073584;28;20332;-15
2022/06/16 00:59:41;;;;;;;2.35;1.65;;;;;;;;;;5073565;28;20240;-16
2022/06/16 01:02:08;;;;;;;4.53;1.88;;;;;;;;;;5071929;28;20236;-16
2022/06/16 01:04:55;;;;;;;3.67;1.83;;;;;;;;;;5073145;28;20240;-16
2022/06/16 01:07:25;;;;;;;2.78;1.75;;;;;;;;;;5067421;28;20233;-16
2022/06/16 01:09:53;;;;;;;5.28;1.95;;;;;;;;;;5078012;28;20957;-16
2022/06/16 01:15:27;;;;;;;2.97;2.05;;;;;;;;;;5070598;28;21092;-16
2022/06/16 01:17:57;;;;;;;1.65;1.40;;;;;;;;;;5068643;28;20232;-16
2022/06/16 01:20:33;;;;;;;2.80;1.77;;;;;;;;;;5063755;28;20233;-16
2022/06/16 01:23:07;;;;;;;4.40;1.92;;;;;;;;;;5072768;28;20673;-16
2022/06/16 01:25:37;;;;;;;3.53;1.80;;;;;;;;;;5073322;28;20237;-16
2022/06/16 01:28:06;;;;;;;2.00;1.65;;;;;;;;;;5072978;28;20259;-16
2022/06/16 01:30:36;;;;;;;4.65;1.90;;;;;;;;;;5072580;28;20244;-16
2022/06/16 01:33:04;;;;;;;3.08;1.85;;;;;;;;;;5058812;28;21164;-16
2022/06/16 01:35:33;;;;;;;2.67;1.90;;;;;;;;;;5055069;28;20994;-16
2022/06/16 01:38:04;;;;;;;1.52;1.42;;;;;;;;;;5060893;28;20232;-16
2022/06/16 01:40:32;;;;;;;3.00;1.77;;;;;;;;;;5072070;28;20229;-16
2022/06/16 01:43:02;;;;;;;3.30;1.55;;;;;;;;;;5059882;28;20237;-16
2022/06/16 01:45:29;;;;;;;2.60;1.67;;;;;;;;;;5072542;28;20233;-16
2022/06/16 01:47:58;;;;;;;2.42;1.70;;;;;;;;;;5073265;28;20297;-16
2022/06/16 01:50:27;;;;;;;2.90;1.63;;;;;;;;;;5063434;28;20233;-16
2022/06/16 01:52:55;;;;;;;2.30;1.75;;;;;;;;;;5071603;28;20233;-16
2022/06/16 01:55:23;;;;;;;3.78;2.15;;;;;;;;;;5072316;28;20225;-16
2022/06/16 01:57:51;;;;;;;1.70;1.60;;;;;;;;;;5072875;28;20229;-16
2022/06/16 02:00:19;;;;;;;3.30;2.03;;;;;;;;;;5072254;28;20241;-16
2022/06/16 02:02:46;;;;;;;3.78;1.63;;;;;;;;;;5072216;28;20229;-16
2022/06/16 02:05:16;;;;;;;1.90;1.70;;;;;;;;;;5073218;28;20233;-17
2022/06/16 02:07:44;;;;;;;2.80;1.95;;;;;;;;;;5059375;28;20234;-16
2022/06/16 02:10:12;;;;;;;2.70;1.75;;;;;;;;;;5072377;28;20221;-16
2022/06/16 02:12:58;;;;;;;2.20;1.65;;;;;;;;;;5072307;28;20297;-16
2022/06/16 02:15:28;;;;;;;3.78;1.88;;;;;;;;;;5084591;28;20229;-16
2022/06/16 02:17:56;;;;;;;3.70;2.08;;;;;;;;;;5071717;28;20236;-16
2022/06/16 02:22:54;;;;;;;3.55;1.65;;;;;;;;;;5047359;28;20249;-22
2022/06/16 02:25:21;;;;;;;2.13;1.90;;;;;;;;;;5050385;28;20222;-22
2022/06/16 02:27:48;;;;;;;2.40;1.55;;;;;;;;;;5051617;28;20236;-22
2022/06/16 02:30:16;;;;;;;2.70;2.10;;;;;;;;;;5047732;28;20241;-21
2022/06/16 02:32:47;;;;;;;2.67;1.77;;;;;;;;;;5045098;28;20244;-22
2022/06/16 02:35:17;;;;;;;1.98;1.58;;;;;;;;;;5049720;28;20238;-21
2022/06/16 02:37:46;;;;;;;2.80;1.77;;;;;;;;;;5051080;28;20257;-22
2022/06/16 02:40:24;;;;;;;2.40;1.90;;;;;;;;;;5051470;28;21882;-20
2022/06/16 02:42:53;;;;;;;3.60;1.70;;;;;;;;;;5050723;28;20236;-22
2022/06/16 02:45:24;;;;;;;4.28;1.90;;;;;;;;;;5051580;28;20226;-22
2022/06/16 02:47:57;;;;;;;4.10;1.90;;;;;;;;;;5052972;28;20248;-22
2022/06/16 02:50:29;;;;;;;6.18;1.65;;;;;;;;;;5053515;28;20234;-22
2022/06/16 02:53:00;;;;;;;1.80;1.38;;;;;;;;;;5048972;28;20245;-22
2022/06/16 02:55:31;;;;;;;3.65;1.70;;;;;;;;;;5052932;28;20260;-23
2022/06/16 02:57:59;;;;;;;3.55;1.60;;;;;;;;;;5052766;28;20859;-20
2022/06/16 03:00:27;;;;;;;2.35;1.70;;;;;;;;;;5051994;28;20234;-21
2022/06/16 03:02:54;;;;;;;2.53;1.77;;;;;;;;;;5052399;28;20230;-23
2022/06/16 03:05:21;;;;;;;3.53;1.90;;;;;;;;;;5053234;28;20659;-22
2022/06/16 03:07:49;;;;;;;2.00;1.80;;;;;;;;;;5052223;28;21048;-23
2022/06/16 03:10:50;;;;;;;3.88;1.60;;;;;;;;;;5052960;28;20230;-23
2022/06/16 03:13:06;;;;;;;1.70;1.42;;;;;;;;;;5053019;28;20284;-22
2022/06/16 03:15:33;;;;;;;2.60;2.05;;;;;;;;;;5051848;28;20229;-22
2022/06/16 03:18:00;;;;;;;1.77;1.58;;;;;;;;;;5043741;28;20689;-22
2022/06/16 03:20:28;;;;;;;4.55;1.98;;;;;;;;;;5051903;28;20991;-23
2022/06/16 03:22:55;;;;;;;3.00;1.80;;;;;;;;;;5052934;28;20225;-22
2022/06/16 03:25:23;;;;;;;2.65;1.80;;;;;;;;;;5052984;28;20230;-22
2022/06/16 03:27:50;;;;;;;2.60;2.00;;;;;;;;;;5052487;28;20233;-20
2022/06/16 03:30:19;;;;;;;2.60;1.88;;;;;;;;;;5048212;28;20225;-21
2022/06/16 03:32:46;;;;;;;3.05;1.80;;;;;;;;;;5052859;28;20233;-22
2022/06/16 03:35:14;;;;;;;3.55;2.15;;;;;;;;;;5053170;28;20230;-22
2022/06/16 03:37:41;;;;;;;2.42;1.83;;;;;;;;;;5052695;28;20230;-22
2022/06/16 03:40:11;;;;;;;2.03;1.63;;;;;;;;;;5051685;28;20249;-22
2022/06/16 03:42:38;;;;;;;2.22;1.90;;;;;;;;;;5049835;28;20234;-23
2022/06/16 03:45:07;;;;;;;2.38;1.70;;;;;;;;;;5050205;28;20231;-20
2022/06/16 03:47:36;;;;;;;3.20;1.77;;;;;;;;;;5049695;28;20265;-21
2022/06/16 03:50:03;;;;;;;3.58;1.90;;;;;;;;;;5050472;28;20689;-22
2022/06/16 03:52:30;;;;;;;2.70;1.83;;;;;;;;;;5046726;28;20238;-22
2022/06/16 03:54:58;;;;;;;4.00;2.08;;;;;;;;;;5052012;28;20226;-22
2022/06/16 03:57:25;;;;;;;3.92;2.00;;;;;;;;;;5051662;28;20226;-23
2022/06/16 03:59:53;;;;;;;2.15;1.70;;;;;;;;;;5052310;28;20237;-23
2022/06/16 04:02:20;;;;;;;3.22;1.92;;;;;;;;;;5051636;28;20245;-21
2022/06/16 04:04:49;;;;;;;1.90;1.52;;;;;;;;;;5037501;28;20278;-23
2022/06/16 04:07:16;;;;;;;3.58;1.80;;;;;;;;;;5042891;28;20246;-21
2022/06/16 04:09:44;;;;;;;2.47;1.90;;;;;;;;;;5044807;28;20249;-22
2022/06/16 04:12:11;;;;;;;2.20;1.80;;;;;;;;;;5040583;28;20238;-22
2022/06/16 04:14:39;;;;;;;2.67;2.08;;;;;;;;;;5049297;28;20234;-22
2022/06/16 04:17:06;;;;;;;3.95;2.00;;;;;;;;;;5051960;28;20245;-23
2022/06/16 04:19:33;;;;;;;4.75;2.20;;;;;;;;;;5050168;28;20234;-22
2022/06/16 04:22:02;;;;;;;4.95;2.05;;;;;;;;;;5047561;28;20238;-23
2022/06/16 04:24:33;;;;;;;3.97;1.70;;;;;;;;;;5052073;28;20296;-22
2022/06/16 04:27:00;;;;;;;2.25;1.80;;;;;;;;;;5051628;28;20234;-22
2022/06/16 04:29:27;;;;;;;2.30;1.65;;;;;;;;;;5052003;28;20226;-22
2022/06/16 04:31:55;;;;;;;4.55;1.90;;;;;;;;;;5051665;28;20226;-23
2022/06/16 04:34:22;;;;;;;3.50;2.28;;;;;;;;;;5051592;28;20238;-23
2022/06/16 04:36:50;;;;;;;2.20;1.77;;;;;;;;;;5046763;28;20235;-22
2022/06/16 04:39:19;;;;;;;2.55;1.90;;;;;;;;;;5042039;28;20222;-23
2022/06/16 04:41:46;;;;;;;3.65;2.28;;;;;;;;;;5051331;28;20230;-22
2022/06/16 04:44:14;;;;;;;2.10;1.90;;;;;;;;;;5051658;28;20231;-23
2022/06/16 04:46:41;;;;;;;3.88;2.17;;;;;;;;;;5051020;28;20234;-22
2022/06/16 04:49:09;;;;;;;4.07;2.22;;;;;;;;;;5041869;28;20751;-22
2022/06/16 04:51:36;;;;;;;3.03;2.15;;;;;;;;;;5051699;28;20624;-20
2022/06/16 04:54:04;;;;;;;3.75;2.15;;;;;;;;;;5051126;28;20739;-21
2022/06/16 04:56:32;;;;;;;3.38;1.80;;;;;;;;;;5051267;28;20230;-21
2022/06/16 04:59:00;;;;;;;2.17;1.98;;;;;;;;;;5050063;28;20230;-21
2022/06/16 05:01:27;;;;;;;3.00;1.92;;;;;;;;;;5050814;28;20237;-22
2022/06/16 05:03:55;;;;;;;2.45;1.80;;;;;;;;;;5051039;28;20226;-22
2022/06/16 05:06:22;;;;;;;3.00;2.15;;;;;;;;;;5051278;28;20238;-22
2022/06/16 05:08:50;;;;;;;5.15;2.03;;;;;;;;;;5050802;28;20689;-22
2022/06/16 05:11:17;;;;;;;2.58;1.80;;;;;;;;;;5043625;28;20762;-22
2022/06/16 05:13:46;;;;;;;2.90;1.80;;;;;;;;;;5043489;28;20658;-22
2022/06/16 05:16:13;;;;;;;4.07;2.15;;;;;;;;;;5050936;28;20260;-22
2022/06/16 05:18:40;;;;;;;2.63;2.08;;;;;;;;;;5051179;28;20238;-20
2022/06/16 05:21:08;;;;;;;2.45;1.80;;;;;;;;;;5050455;28;20757;-21
2022/06/16 05:23:35;;;;;;;4.07;1.85;;;;;;;;;;5051205;28;20900;-22
2022/06/16 05:26:03;;;;;;;2.63;2.00;;;;;;;;;;5050748;28;20230;-22
2022/06/16 05:28:31;;;;;;;4.10;1.85;;;;;;;;;;5051228;28;20244;-22
2022/06/16 05:31:00;;;;;;;3.50;1.90;;;;;;;;;;5050601;28;20281;-21
2022/06/16 05:33:27;;;;;;;4.97;2.00;;;;;;;;;;5050527;28;20249;-22
2022/06/16 05:35:55;;;;;;;4.47;2.20;;;;;;;;;;5049933;28;20241;-22
2022/06/16 05:38:23;;;;;;;6.05;2.20;;;;;;;;;;5050901;28;20226;-22
2022/06/16 05:40:55;;;;;;;6.85;2.17;;;;;;;;;;5050423;28;20245;-22
2022/06/16 05:43:22;;;;;;;2.78;1.95;;;;;;;;;;5050496;28;20717;-22
2022/06/16 05:45:50;;;;;;;3.78;2.08;;;;;;;;;;5050412;28;20349;-22
2022/06/16 05:48:18;;;;;;;3.10;2.28;;;;;;;;;;5050682;28;20493;-22
2022/06/16 05:50:46;;;;;;;4.30;2.00;;;;;;;;;;5050690;28;20230;-21
2022/06/16 05:53:13;;;;;;;5.55;2.08;;;;;;;;;;5049938;28;20246;-21
2022/06/16 05:55:40;;;;;;;3.58;1.77;;;;;;;;;;5050498;28;20233;-21
2022/06/16 05:58:08;;;;;;;3.13;1.88;;;;;;;;;;5050651;28;20226;-22
2022/06/16 06:00:35;;;;;;;4.10;2.00;;;;;;;;;;5035501;28;20284;-22
2022/06/16 06:03:03;;;;;;;3.85;1.80;;;;;;;;;;5050184;28;20234;-21
2022/06/16 06:05:32;;;;;;;4.28;2.15;;;;;;;;;;5050008;28;20261;-22
2022/06/16 06:16:27;;;;;;;3.65;2.13;;;;;;;;;;5049491;28;20257;-22
2022/06/16 06:18:54;;;;;;;3.50;1.77;;;;;;;;;;5050584;28;20236;-22
2022/06/16 06:24:04;;;;;;;3.95;2.05;;;;;;;;;;5049660;28;20236;-22
2022/06/16 06:26:32;;;;;;;3.13;1.98;;;;;;;;;;5045986;28;20300;-22
2022/06/16 06:28:59;;;;;;;3.13;1.65;;;;;;;;;;5042685;28;20721;-22
2022/06/16 06:31:26;;;;;;;3.05;1.70;;;;;;;;;;5057923;28;20704;-22
2022/06/16 06:33:54;;;;;;;2.28;1.60;;;;;;;;;;5054101;28;20296;-21
2022/06/16 06:36:23;;;;;;;5.57;1.70;;;;;;;;;;5058678;28;20226;-22
2022/06/16 06:38:50;;;;;;;4.82;1.50;;;;;;;;;;5059611;28;20237;-20
2022/06/16 06:41:17;;;;;;;11.90;2.78;;;;;;;;;;5054057;28;20230;-20
2022/06/16 06:43:45;;;;;;;3.78;1.92;;;;;;;;;;5058146;28;20229;-22
2022/06/16 06:46:12;;;;;;;5.78;1.60;;;;;;;;;;5057360;28;20226;-21
2022/06/16 06:48:39;;;;;;;2.70;1.35;;;;;;;;;;5054018;28;20256;-22
2022/06/16 06:51:07;;;;;;;2.58;1.65;;;;;;;;;;5058816;28;20725;-22
2022/06/16 06:53:36;;;;;;;7.65;1.70;;;;;;;;;;5062250;28;20241;-22
2022/06/16 06:56:03;;;;;;;4.75;2.15;;;;;;;;;;5058987;28;20234;-22
2022/06/16 06:58:32;;;;;;;2.72;1.33;;;;;;;;;;5053206;28;20262;-21
2022/06/16 07:01:01;;;;;;;5.45;1.90;;;;;;;;;;5049578;28;20229;-20
2022/06/16 07:03:29;;;;;;;8.70;1.90;;;;;;;;;;5054400;28;20230;-21
2022/06/16 07:05:56;;;;;;;6.38;1.90;;;;;;;;;;5046540;28;20575;-22
2022/06/16 07:08:24;;;;;;;5.07;1.65;;;;;;;;;;5048355;28;20241;-21
2022/06/16 07:10:53;;;;;;;7.38;1.88;;;;;;;;;;5054181;28;20234;-22
2022/06/16 07:13:20;;;;;;;13.15;1.83;;;;;;;;;;5056701;28;20239;-22
2022/06/16 07:15:47;;;;;;;7.55;1.65;;;;;;;;;;5045542;28;20234;-22
2022/06/16 07:18:15;;;;;;;3.83;1.40;;;;;;;;;;5047725;28;20230;-22
2022/06/16 07:20:42;;;;;;;7.97;1.67;;;;;;;;;;5051038;28;20245;-22
2022/06/16 07:23:10;;;;;;;3.63;1.60;;;;;;;;;;5060608;28;20230;-23
2022/06/16 07:25:37;;;;;;;2.40;1.20;;;;;;;;;;5052482;28;20717;-21
2022/06/16 07:28:06;;;;;;;6.57;1.20;;;;;;;;;;5052574;28;20607;-22
2022/06/16 07:30:34;;;;;;;4.72;1.48;;;;;;;;;;5053683;28;21012;-22
2022/06/16 07:33:01;;;;;;;2.83;1.00;;;;;;;;;;5053018;28;20708;-21
2022/06/16 07:35:29;;;;;;;3.67;1.00;;;;;;;;;;5063411;28;20943;-22
2022/06/16 07:37:56;;;;;;;2.38;1.00;;;;;;;;;;5061500;28;20226;-21
2022/06/16 07:40:24;;;;;;;3.55;1.02;;;;;;;;;;5054061;28;21215;-22
2022/06/16 07:42:56;;;;;;;3.03;1.00;;;;;;;;;;5052650;28;20739;-21
2022/06/16 07:45:25;;;;;;;1.40;0.82;;;;;;;;;;5051298;28;20261;-22
2022/06/16 07:47:54;;;;;;;4.03;1.05;;;;;;;;;;5054868;28;20307;-21
2022/06/16 07:50:22;;;;;;;3.42;1.00;;;;;;;;;;5052003;28;20241;-22
2022/06/16 07:52:49;;;;;;;3.03;1.08;;;;;;;;;;5052426;28;20807;-22
2022/06/16 07:55:18;;;;;;;2.40;1.00;;;;;;;;;;5052132;28;20635;-19
2022/06/16 07:57:46;;;;;;;6.82;1.63;;;;;;;;;;5052257;28;20226;-22
2022/06/16 08:00:14;;;;;;;4.55;1.17;;;;;;;;;;5049049;28;20230;-21
2022/06/16 08:02:43;;;;;;;1.90;0.80;;;;;;;;;;5044969;28;20237;-22
2022/06/16 08:05:11;;;;;;;3.58;1.17;;;;;;;;;;5049796;28;20226;-21
2022/06/16 08:07:38;;;;;;;3.80;1.17;;;;;;;;;;5051623;28;20234;-22
2022/06/16 08:10:06;;;;;;;2.83;1.10;;;;;;;;;;5051817;28;20230;-22
2022/06/16 08:12:34;;;;;;;1.90;0.88;;;;;;;;;;5038140;28;20266;-22
2022/06/16 08:15:02;;;;;;;2.75;1.02;;;;;;;;;;5052248;28;20655;-22
2022/06/16 08:17:31;;;;;;;3.33;1.00;;;;;;;;;;5041957;28;20654;-22
2022/06/16 08:20:00;;;;;;;2.63;1.10;;;;;;;;;;5051950;28;20242;-22
2022/06/16 08:22:28;;;;;;;4.47;1.20;;;;;;;;;;5050053;28;20246;-21
2022/06/16 08:24:55;;;;;;;1.77;0.77;;;;;;;;;;5051707;28;20972;-22
2022/06/16 08:27:23;;;;;;;3.10;1.13;;;;;;;;;;5048252;28;20226;-22
2022/06/16 08:29:51;;;;;;;2.10;1.30;;;;;;;;;;5049628;28;20226;-22
2022/06/16 08:32:19;;;;;;;4.53;1.48;;;;;;;;;;5050925;28;20233;-22
2022/06/16 08:34:47;;;;;;;2.83;0.95;;;;;;;;;;5050915;28;20249;-22
2022/06/16 08:37:15;;;;;;;2.75;1.20;;;;;;;;;;5051854;28;20364;-23
2022/06/16 08:39:43;;;;;;;2.95;1.00;;;;;;;;;;5048834;28;20237;-22
2022/06/16 08:42:11;;;;;;;3.55;1.25;;;;;;;;;;5051686;28;20233;-22
2022/06/16 08:44:40;;;;;;;2.63;1.30;;;;;;;;;;5051479;28;20268;-22
2022/06/16 08:47:09;;;;;;;2.35;1.20;;;;;;;;;;5051080;28;20238;-22
2022/06/16 08:49:39;;;;;;;2.80;1.33;;;;;;;;;;5048443;28;20226;-21
2022/06/16 08:52:10;;;;;;;4.67;1.50;;;;;;;;;;5046786;28;21440;-20
2022/06/16 08:54:44;;;;;;;5.60;1.42;;;;;;;;;;5049814;28;20856;-21
2022/06/16 08:57:13;;;;;;;5.50;1.30;;;;;;;;;;5049082;28;20470;-22
2022/06/16 08:59:41;;;;;;;4.85;1.38;;;;;;;;;;5052465;28;20241;-22
2022/06/16 09:02:09;;;;;;;5.07;1.38;;;;;;;;;;5046875;28;20434;-23
2022/06/16 09:04:38;;;;;;;2.80;1.33;;;;;;;;;;5049566;28;20578;-23
2022/06/16 09:07:07;;;;;;;4.63;1.45;;;;;;;;;;5047814;28;20229;-21
2022/06/16 09:12:27;;;;;;;3.13;0.95;;;;;;;;;;5049583;28;20229;-20
2022/06/16 09:15:14;;;;;;;4.53;1.30;;;;;;;;;;5050021;28;21115;-21
2022/06/16 09:17:47;;;;;;;3.63;1.25;;;;;;;;;;5049123;28;20225;-22
2022/06/16 09:20:30;;;;;;;3.58;1.27;;;;;;;;;;5057722;28;20328;-22
2022/06/16 09:23:02;;;;;;;3.55;1.17;;;;;;;;;;5049610;28;20617;-20
2022/06/16 09:25:44;;;;;;;4.15;1.42;;;;;;;;;;5049011;28;20245;-22
2022/06/16 09:28:15;;;;;;;2.25;1.30;;;;;;;;;;5046537;28;20921;-22
2022/06/16 09:30:43;;;;;;;3.65;1.38;;;;;;;;;;5055668;28;20866;-22
2022/06/16 09:33:11;;;;;;;3.72;1.38;;;;;;;;;;5048770;28;20836;-21
2022/06/16 09:35:40;;;;;;;4.38;1.60;;;;;;;;;;5050343;28;21094;-22
2022/06/16 09:38:08;;;;;;;2.00;1.40;;;;;;;;;;5049659;28;21019;-22
2022/06/16 09:40:36;;;;;;;3.33;1.20;;;;;;;;;;5053215;28;20245;-22
2022/06/16 09:43:06;;;;;;;3.58;1.85;;;;;;;;;;5048991;28;20237;-20
2022/06/16 09:45:36;;;;;;;4.18;1.42;;;;;;;;;;5044979;28;20244;-22
2022/06/16 09:48:04;;;;;;;2.97;1.42;;;;;;;;;;5049734;28;20273;-22
2022/06/16 09:50:34;;;;;;;3.45;1.55;;;;;;;;;;5050860;28;20237;-20
2022/06/16 09:53:03;;;;;;;3.75;1.50;;;;;;;;;;5051071;28;20221;-22
2022/06/16 09:55:33;;;;;;;4.68;1.60;;;;;;;;;;5049434;28;20243;-22
2022/06/16 09:58:08;;;;;;;5.38;1.48;;;;;;;;;;5050792;28;20234;-22
2022/06/16 10:00:37;;;;;;;3.30;1.27;;;;;;;;;;5050452;28;20225;-21
2022/06/16 10:03:11;;;;;;;3.80;1.48;;;;;;;;;;5050280;28;20246;-22
2022/06/16 10:05:39;;;;;;;6.13;1.58;;;;;;;;;;5049872;28;20229;-23
2022/06/16 10:08:08;;;;;;;4.30;1.50;;;;;;;;;;5046801;28;20229;-22
2022/06/16 10:10:36;;;;;;;1.90;1.30;;;;;;;;;;5048208;28;20226;-20
2022/06/16 10:13:05;;;;;;;3.80;1.40;;;;;;;;;;5037109;28;20646;-21
2022/06/16 10:15:33;;;;;;;3.78;1.48;;;;;;;;;;5050193;28;20615;-22
2022/06/16 10:18:02;;;;;;;7.88;1.83;;;;;;;;;;5047906;28;20705;-22
2022/06/16 10:20:30;;;;;;;3.20;1.50;;;;;;;;;;5050234;28;20602;-22
2022/06/16 10:22:58;;;;;;;4.55;1.90;;;;;;;;;;5050381;28;20317;-22
2022/06/16 10:25:27;;;;;;;7.65;1.88;;;;;;;;;;5049979;28;20771;-21
2022/06/16 10:28:04;;;;;;;4.60;2.13;;;;;;;;;;5050582;28;20316;-22
2022/06/16 10:30:33;;;;;;;12.00;1.95;;;;;;;;;;5050182;28;20226;-22
2022/06/16 10:33:09;;;;;;;9.25;1.88;;;;;;;;;;5055648;28;20229;-22
2022/06/16 10:35:36;;;;;;;6.72;1.90;;;;;;;;;;5048659;28;20431;-21
2022/06/16 10:38:04;;;;;;;6.13;1.98;;;;;;;;;;5045438;28;21511;-22
2022/06/16 10:40:31;;;;;;;10.32;2.42;;;;;;;;;;5049764;28;20619;-21
2022/06/16 10:43:19;;;;;;;13.63;2.63;;;;;;;;;;5053048;28;20240;-22
2022/06/16 10:45:54;;;;;;;5.53;1.92;;;;;;;;;;5053257;28;20701;-22
2022/06/16 10:48:28;;;;;;;2.97;1.88;;;;;;;;;;5051730;28;20968;-21
2022/06/16 10:50:58;;;;;;;4.00;1.90;;;;;;;;;;5046520;28;20241;-21
2022/06/16 10:53:25;;;;;;;3.97;1.85;;;;;;;;;;5048824;28;20242;-21
2022/06/16 10:55:55;;;;;;;2.97;1.95;;;;;;;;;;5044847;28;20246;-21
2022/06/16 10:58:24;;;;;;;4.28;1.90;;;;;;;;;;5054245;28;21017;-20
2022/06/16 11:01:00;;;;;;;7.60;2.30;;;;;;;;;;5052148;28;20233;-21
2022/06/16 11:03:29;;;;;;;7.25;2.25;;;;;;;;;;5048737;28;20237;-21
2022/06/16 11:05:57;;;;;;;4.60;2.13;;;;;;;;;;5048243;28;20296;-21
2022/06/16 11:08:25;;;;;;;5.07;1.93;;;;;;;;;;5048279;28;21158;-21
2022/06/16 11:11:13;;;;;;;4.35;1.95;;;;;;;;;;5055752;28;20446;-21
2022/06/16 11:13:44;;;;;;;5.65;1.92;;;;;;;;;;5054423;28;20234;-22
2022/06/16 11:16:13;;;;;;;6.25;2.35;;;;;;;;;;5054470;28;20393;-21
2022/06/16 11:18:44;;;;;;;4.85;2.20;;;;;;;;;;5053455;28;20237;-22
2022/06/16 11:21:13;;;;;;;4.22;1.90;;;;;;;;;;5047716;28;20246;-21
2022/06/16 11:23:42;;;;;;;4.28;2.20;;;;;;;;;;5048413;28;20298;-22
2022/06/16 11:26:18;;;;;;;4.78;2.03;;;;;;;;;;5044008;28;20236;-22
2022/06/16 11:28:46;;;;;;;5.95;2.20;;;;;;;;;;5048399;28;20245;-22
2022/06/16 11:31:14;;;;;;;6.68;2.30;;;;;;;;;;5050517;28;20230;-20
2022/06/16 11:34:08;;;;;;;2.88;2.28;;;;;;;;;;5052868;28;20252;-22
2022/06/16 11:36:44;;;;;;;7.03;2.40;;;;;;;;;;5051363;28;21085;-21
2022/06/16 11:39:12;;;;;;;5.47;2.40;;;;;;;;;;5053414;28;20980;-22
2022/06/16 11:41:39;;;;;;;2.38;1.85;;;;;;;;;;5052360;28;20234;-22
2022/06/16 11:44:09;;;;;;;3.47;2.15;;;;;;;;;;5052386;28;20707;-21
2022/06/16 11:46:39;;;;;;;3.92;1.80;;;;;;;;;;5051868;28;20329;-21
2022/06/16 11:49:11;;;;;;;3.50;2.17;;;;;;;;;;5052529;28;20242;-22
2022/06/16 11:51:39;;;;;;;5.35;2.20;;;;;;;;;;5048310;28;20245;-21
2022/06/16 11:54:10;;;;;;;3.47;2.10;;;;;;;;;;5052771;28;20997;-21
2022/06/16 11:56:42;;;;;;;5.60;2.20;;;;;;;;;;5049232;28;20729;-22
2022/06/16 11:59:30;;;;;;;4.28;2.42;;;;;;;;;;5052124;28;20233;-21
2022/06/16 12:01:58;;;;;;;3.40;1.92;;;;;;;;;;5044562;28;20225;-22
2022/06/16 12:04:45;;;;;;;3.33;2.35;;;;;;;;;;5052327;28;20246;-21
2022/06/16 12:07:19;;;;;;;3.30;2.08;;;;;;;;;;5049324;28;20225;-21
2022/06/16 12:09:48;;;;;;;4.07;2.25;;;;;;;;;;5052145;28;21029;-22
2022/06/16 12:12:19;;;;;;;3.95;2.15;;;;;;;;;;5042880;28;20245;-21
2022/06/16 12:14:49;;;;;;;5.80;2.30;;;;;;;;;;5052105;28;20226;-22
2022/06/16 12:17:18;;;;;;;3.38;2.30;;;;;;;;;;5051714;28;20693;-21
2022/06/16 12:19:48;;;;;;;3.60;2.13;;;;;;;;;;5051395;28;20238;-21
2022/06/16 12:22:16;;;;;;;3.58;2.20;;;;;;;;;;5052195;28;20245;-22
2022/06/16 12:24:48;;;;;;;3.97;2.10;;;;;;;;;;5051948;28;20249;-22
2022/06/16 12:27:16;;;;;;;3.78;2.30;;;;;;;;;;5051973;28;20237;-23
2022/06/16 12:29:45;;;;;;;4.00;2.17;;;;;;;;;;5051295;28;20233;-22
2022/06/16 12:32:16;;;;;;;5.70;2.50;;;;;;;;;;5051636;28;20260;-23
2022/06/16 12:34:49;;;;;;;7.18;2.30;;;;;;;;;;5051960;28;20238;-22
2022/06/16 12:37:19;;;;;;;3.92;2.20;;;;;;;;;;5051150;28;20610;-21
2022/06/16 12:39:53;;;;;;;4.15;2.10;;;;;;;;;;5051480;28;20358;-21
2022/06/16 12:42:21;;;;;;;3.17;2.20;;;;;;;;;;5050109;28;20234;-22
2022/06/16 12:44:50;;;;;;;3.50;2.10;;;;;;;;;;5051913;28;21008;-22
2022/06/16 12:47:19;;;;;;;5.05;2.20;;;;;;;;;;5051484;28;20226;-20
2022/06/16 12:49:48;;;;;;;3.50;1.90;;;;;;;;;;5051638;28;20232;-21
2022/06/16 12:52:20;;;;;;;4.10;2.28;;;;;;;;;;5050373;28;20701;-21
2022/06/16 12:54:48;;;;;;;3.40;2.00;;;;;;;;;;5051395;28;20739;-20
2022/06/16 12:57:17;;;;;;;3.97;2.20;;;;;;;;;;5051555;28;20269;-21
2022/06/16 12:59:46;;;;;;;2.53;2.33;;;;;;;;;;5051608;28;20230;-21
2022/06/16 13:02:15;;;;;;;3.10;1.98;;;;;;;;;;5050454;28;20234;-21
2022/06/16 13:04:42;;;;;;;2.50;2.00;;;;;;;;;;5051459;28;20233;-21
2022/06/16 13:07:12;;;;;;;2.15;1.80;;;;;;;;;;5050497;28;20705;-22
2022/06/16 13:09:42;;;;;;;4.25;2.20;;;;;;;;;;5051533;28;20233;-20
2022/06/16 13:12:14;;;;;;;2.88;2.38;;;;;;;;;;5041763;28;21040;-21
2022/06/16 13:14:43;;;;;;;2.78;2.03;;;;;;;;;;5041411;28;20771;-20
2022/06/16 13:17:10;;;;;;;3.42;2.25;;;;;;;;;;5060239;28;20227;-21
2022/06/16 13:19:40;;;;;;;6.47;2.35;;;;;;;;;;5053915;28;20237;-21
2022/06/16 13:22:07;;;;;;;5.45;2.38;;;;;;;;;;5050411;28;20248;-21
2022/06/16 13:24:36;;;;;;;5.45;2.20;;;;;;;;;;5047348;28;20424;-21
2022/06/16 13:27:07;;;;;;;7.83;2.43;;;;;;;;;;5050624;28;20422;-21
2022/06/16 13:29:41;;;;;;;10.90;2.67;;;;;;;;;;5051423;28;20689;-22
2022/06/16 13:32:20;;;;;;;3.95;2.25;;;;;;;;;;5043974;28;20238;-21
2022/06/16 13:34:57;;;;;;;8.77;2.65;;;;;;;;;;5048709;28;20988;-21
2022/06/16 13:37:33;;;;;;;4.65;2.45;;;;;;;;;;5049899;28;20244;-22
2022/06/16 13:40:14;;;;;;;7.82;2.97;;;;;;;;;;5050881;28;20256;-22
2022/06/16 13:42:44;;;;;;;3.50;2.50;;;;;;;;;;5047609;28;20245;-21
2022/06/16 13:45:22;;;;;;;7.82;2.80;;;;;;;;;;5052202;28;20229;-22
2022/06/16 13:48:04;;;;;;;5.80;2.50;;;;;;;;;;5051158;28;20237;-21
2022/06/16 13:50:40;;;;;;;7.30;2.50;;;;;;;;;;5045007;28;20225;-20
2022/06/16 13:53:08;;;;;;;5.78;2.60;;;;;;;;;;5049465;28;20234;-21
2022/06/16 13:55:35;;;;;;;5.57;2.47;;;;;;;;;;5052756;28;20697;-21
2022/06/16 13:58:15;;;;;;;12.18;2.85;;;;;;;;;;5044645;28;20526;-22
2022/06/16 14:00:43;;;;;;;10.60;2.50;;;;;;;;;;5049827;28;20327;-21
2022/06/16 14:03:17;;;;;;;7.35;3.00;;;;;;;;;;5051175;28;20238;-22
2022/06/16 14:05:49;;;;;;;7.57;3.00;;;;;;;;;;5041914;28;20232;-21
2022/06/16 14:08:16;;;;;;;6.50;2.70;;;;;;;;;;5049518;28;20241;-21
2022/06/16 14:10:45;;;;;;;6.55;2.70;;;;;;;;;;5048153;28;20900;-22
2022/06/16 14:13:19;;;;;;;5.22;2.67;;;;;;;;;;5042977;28;20231;-21
2022/06/16 14:15:52;;;;;;;3.97;2.72;;;;;;;;;;5050385;28;20317;-21
2022/06/16 14:18:21;;;;;;;5.80;2.63;;;;;;;;;;5050553;28;20241;-21
2022/06/16 14:20:56;;;;;;;4.30;2.35;;;;;;;;;;5040354;28;20697;-21
2022/06/16 14:23:24;;;;;;;3.83;2.70;;;;;;;;;;5049439;28;20993;-22
2022/06/16 14:25:53;;;;;;;4.35;2.90;;;;;;;;;;5050465;28;20717;-20
2022/06/16 14:28:23;;;;;;;5.35;2.60;;;;;;;;;;5050541;28;20271;-21
2022/06/16 14:30:51;;;;;;;3.65;2.58;;;;;;;;;;5051208;28;20240;-21
2022/06/16 14:33:22;;;;;;;5.25;2.80;;;;;;;;;;5053755;28;20226;-20
2022/06/16 14:35:50;;;;;;;9.30;3.00;;;;;;;;;;5054198;28;20234;-21
2022/06/16 14:38:18;;;;;;;5.05;2.50;;;;;;;;;;5053842;28;20238;-22
2022/06/16 14:40:48;;;;;;;8.20;2.60;;;;;;;;;;5053840;28;20233;-22
2022/06/16 14:43:16;;;;;;;5.72;3.10;;;;;;;;;;5047428;28;20234;-20
2022/06/16 14:45:46;;;;;;;3.28;2.33;;;;;;;;;;5053494;28;20234;-21
2022/06/16 14:48:15;;;;;;;5.57;2.33;;;;;;;;;;5053397;28;20234;-21
2022/06/16 14:50:45;;;;;;;4.57;2.58;;;;;;;;;;5053722;28;20269;-21
2022/06/16 14:53:13;;;;;;;3.05;2.75;;;;;;;;;;5046148;28;20554;-22
2022/06/16 14:55:47;;;;;;;6.90;2.55;;;;;;;;;;5053601;28;20292;-22
2022/06/16 14:58:15;;;;;;;3.40;2.33;;;;;;;;;;5053738;28;20245;-21
2022/06/16 15:00:43;;;;;;;4.55;2.35;;;;;;;;;;5053579;28;20241;-22
2022/06/16 15:03:12;;;;;;;4.55;2.63;;;;;;;;;;5053205;28;20256;-21
2022/06/16 15:05:42;;;;;;;4.80;2.15;;;;;;;;;;5053155;28;20228;-20
2022/06/16 15:08:09;;;;;;;3.83;2.80;;;;;;;;;;5053538;28;20238;-22
2022/06/16 15:10:36;;;;;;;4.68;2.50;;;;;;;;;;5052481;28;20230;-21
2022/06/16 15:13:05;;;;;;;4.50;2.63;;;;;;;;;;5042169;28;20230;-22
2022/06/16 15:15:32;;;;;;;3.15;2.20;;;;;;;;;;5052641;28;20237;-22